sensor_id;sensor_type;location;lat;lon;timestamp;P1;durP1;ratioP1;P2;durP2;ratioP2
41297;SDS011;27381;46.032;13.650;2022-11-02T00:01:32;37.97;;;17.52;;
41297;SDS011;27381;46.032;13.650;2022-11-02T00:04:01;50.83;;;17.63;;
41297;SDS011;27381;46.032;13.650;2022-11-02T00:06:27;39.65;;;15.18;;
41297;SDS011;27381;46.032;13.650;2022-11-02T00:08:52;51.03;;;14.60;;
41297;SDS011;27381;46.032;13.650;2022-11-02T00:11:17;42.63;;;15.55;;
41297;SDS011;27381;46.032;13.650;2022-11-02T00:13:43;49.42;;;18.60;;
41297;SDS011;27381;46.032;13.650;2022-11-02T00:16:09;35.03;;;15.40;;
41297;SDS011;27381;46.032;13.650;2022-11-02T00:18:35;50.22;;;18.95;;
41297;SDS011;27381;46.032;13.650;2022-11-02T00:21:01;44.40;;;17.02;;
41297;SDS011;27381;46.032;13.650;2022-11-02T00:23:27;44.30;;;18.55;;
41297;SDS011;27381;46.032;13.650;2022-11-02T00:25:53;47.30;;;18.00;;
41297;SDS011;27381;46.032;13.650;2022-11-02T00:28:19;48.10;;;17.05;;
41297;SDS011;27381;46.032;13.650;2022-11-02T00:30:44;38.60;;;15.13;;
41297;SDS011;27381;46.032;13.650;2022-11-02T00:33:10;42.92;;;15.38;;
41297;SDS011;27381;46.032;13.650;2022-11-02T00:35:36;39.25;;;17.80;;
41297;SDS011;27381;46.032;13.650;2022-11-02T00:38:02;42.83;;;17.45;;
41297;SDS011;27381;46.032;13.650;2022-11-02T00:40:27;38.25;;;15.93;;
41297;SDS011;27381;46.032;13.650;2022-11-02T00:42:53;44.70;;;18.40;;
41297;SDS011;27381;46.032;13.650;2022-11-02T00:45:18;37.83;;;15.85;;
41297;SDS011;27381;46.032;13.650;2022-11-02T00:47:45;40.45;;;15.52;;
41297;SDS011;27381;46.032;13.650;2022-11-02T00:50:10;43.63;;;16.65;;
41297;SDS011;27381;46.032;13.650;2022-11-02T00:52:38;37.22;;;14.73;;
41297;SDS011;27381;46.032;13.650;2022-11-02T00:55:05;39.55;;;15.82;;
41297;SDS011;27381;46.032;13.650;2022-11-02T00:57:30;31.45;;;14.77;;
41297;SDS011;27381;46.032;13.650;2022-11-02T00:59:57;42.45;;;16.15;;
41297;SDS011;27381;46.032;13.650;2022-11-02T01:02:22;34.42;;;15.40;;
41297;SDS011;27381;46.032;13.650;2022-11-02T01:04:48;38.22;;;13.85;;
41297;SDS011;27381;46.032;13.650;2022-11-02T01:07:13;38.33;;;15.40;;
41297;SDS011;27381;46.032;13.650;2022-11-02T01:09:38;31.67;;;14.85;;
41297;SDS011;27381;46.032;13.650;2022-11-02T01:12:04;33.05;;;14.50;;
41297;SDS011;27381;46.032;13.650;2022-11-02T01:14:30;34.10;;;13.82;;
41297;SDS011;27381;46.032;13.650;2022-11-02T01:16:55;31.77;;;14.75;;
41297;SDS011;27381;46.032;13.650;2022-11-02T01:19:22;31.65;;;14.38;;
41297;SDS011;27381;46.032;13.650;2022-11-02T01:21:48;42.55;;;14.88;;
41297;SDS011;27381;46.032;13.650;2022-11-02T01:24:13;29.85;;;13.70;;
41297;SDS011;27381;46.032;13.650;2022-11-02T01:26:39;37.88;;;13.55;;
41297;SDS011;27381;46.032;13.650;2022-11-02T01:29:04;38.22;;;14.40;;
41297;SDS011;27381;46.032;13.650;2022-11-02T01:31:29;32.10;;;14.20;;
41297;SDS011;27381;46.032;13.650;2022-11-02T01:33:55;33.65;;;15.90;;
41297;SDS011;27381;46.032;13.650;2022-11-02T01:36:20;41.40;;;15.95;;
41297;SDS011;27381;46.032;13.650;2022-11-02T01:38:46;34.65;;;14.13;;
41297;SDS011;27381;46.032;13.650;2022-11-02T01:41:14;39.38;;;15.65;;
41297;SDS011;27381;46.032;13.650;2022-11-02T01:43:40;33.35;;;14.10;;
41297;SDS011;27381;46.032;13.650;2022-11-02T01:46:11;37.05;;;13.55;;
41297;SDS011;27381;46.032;13.650;2022-11-02T01:51:10;34.35;;;15.05;;
41297;SDS011;27381;46.032;13.650;2022-11-02T01:53:36;32.92;;;14.85;;
41297;SDS011;27381;46.032;13.650;2022-11-02T01:56:03;41.10;;;14.52;;
41297;SDS011;27381;46.032;13.650;2022-11-02T01:58:29;36.78;;;15.38;;
41297;SDS011;27381;46.032;13.650;2022-11-02T02:00:59;33.78;;;13.35;;
41297;SDS011;27381;46.032;13.650;2022-11-02T02:03:24;43.00;;;14.70;;
41297;SDS011;27381;46.032;13.650;2022-11-02T02:05:52;40.67;;;13.98;;
41297;SDS011;27381;46.032;13.650;2022-11-02T02:08:19;33.80;;;14.38;;
41297;SDS011;27381;46.032;13.650;2022-11-02T02:10:45;40.20;;;16.13;;
41297;SDS011;27381;46.032;13.650;2022-11-02T02:13:11;26.45;;;13.63;;
41297;SDS011;27381;46.032;13.650;2022-11-02T02:15:40;36.28;;;15.15;;
41297;SDS011;27381;46.032;13.650;2022-11-02T02:18:24;34.60;;;13.45;;
41297;SDS011;27381;46.032;13.650;2022-11-02T02:21:01;33.63;;;15.40;;
41297;SDS011;27381;46.032;13.650;2022-11-02T02:39:00;39.25;;;14.57;;
41297;SDS011;27381;46.032;13.650;2022-11-02T02:41:36;34.55;;;14.15;;
41297;SDS011;27381;46.032;13.650;2022-11-02T02:44:03;43.60;;;14.00;;
41297;SDS011;27381;46.032;13.650;2022-11-02T02:46:39;35.17;;;14.43;;
41297;SDS011;27381;46.032;13.650;2022-11-02T02:49:09;37.05;;;17.52;;
41297;SDS011;27381;46.032;13.650;2022-11-02T02:51:35;37.40;;;16.55;;
41297;SDS011;27381;46.032;13.650;2022-11-02T02:54:02;44.00;;;16.50;;
41297;SDS011;27381;46.032;13.650;2022-11-02T02:56:29;35.28;;;16.98;;
41297;SDS011;27381;46.032;13.650;2022-11-02T03:01:21;42.75;;;17.73;;
41297;SDS011;27381;46.032;13.650;2022-11-02T03:03:47;45.88;;;17.60;;
41297;SDS011;27381;46.032;13.650;2022-11-02T03:06:21;48.50;;;17.73;;
41297;SDS011;27381;46.032;13.650;2022-11-02T03:08:54;40.30;;;14.57;;
41297;SDS011;27381;46.032;13.650;2022-11-02T03:11:22;33.15;;;14.48;;
41297;SDS011;27381;46.032;13.650;2022-11-02T03:23:59;36.78;;;16.92;;
41297;SDS011;27381;46.032;13.650;2022-11-02T03:26:33;36.42;;;17.15;;
41297;SDS011;27381;46.032;13.650;2022-11-02T03:29:02;40.45;;;16.98;;
41297;SDS011;27381;46.032;13.650;2022-11-02T03:32:02;45.40;;;17.92;;
41297;SDS011;27381;46.032;13.650;2022-11-02T03:34:23;37.92;;;13.75;;
41297;SDS011;27381;46.032;13.650;2022-11-02T03:39:23;36.60;;;16.90;;
41297;SDS011;27381;46.032;13.650;2022-11-02T03:41:49;49.30;;;19.17;;
41297;SDS011;27381;46.032;13.650;2022-11-02T03:44:19;42.97;;;15.48;;
41297;SDS011;27381;46.032;13.650;2022-11-02T03:46:46;39.60;;;16.50;;
41297;SDS011;27381;46.032;13.650;2022-11-02T03:49:15;38.30;;;16.30;;
41297;SDS011;27381;46.032;13.650;2022-11-02T03:51:42;39.10;;;17.80;;
41297;SDS011;27381;46.032;13.650;2022-11-02T03:54:12;30.60;;;14.63;;
41297;SDS011;27381;46.032;13.650;2022-11-02T03:56:42;36.53;;;15.05;;
41297;SDS011;27381;46.032;13.650;2022-11-02T03:59:09;37.35;;;16.00;;
41297;SDS011;27381;46.032;13.650;2022-11-02T04:01:36;31.75;;;13.90;;
41297;SDS011;27381;46.032;13.650;2022-11-02T04:04:03;39.85;;;16.38;;
41297;SDS011;27381;46.032;13.650;2022-11-02T04:06:29;37.60;;;15.20;;
41297;SDS011;27381;46.032;13.650;2022-11-02T04:08:54;46.53;;;15.70;;
41297;SDS011;27381;46.032;13.650;2022-11-02T04:11:20;41.78;;;17.27;;
41297;SDS011;27381;46.032;13.650;2022-11-02T04:14:08;44.50;;;15.65;;
41297;SDS011;27381;46.032;13.650;2022-11-02T04:16:53;44.38;;;17.15;;
41297;SDS011;27381;46.032;13.650;2022-11-02T04:19:43;33.15;;;14.73;;
41297;SDS011;27381;46.032;13.650;2022-11-02T04:22:08;41.53;;;14.90;;
41297;SDS011;27381;46.032;13.650;2022-11-02T04:25:00;37.88;;;14.00;;
41297;SDS011;27381;46.032;13.650;2022-11-02T04:28:07;35.00;;;13.57;;
41297;SDS011;27381;46.032;13.650;2022-11-02T04:30:36;33.65;;;14.38;;
41297;SDS011;27381;46.032;13.650;2022-11-02T04:33:02;29.95;;;13.98;;
41297;SDS011;27381;46.032;13.650;2022-11-02T04:35:52;31.13;;;14.05;;
41297;SDS011;27381;46.032;13.650;2022-11-02T04:38:19;38.90;;;15.93;;
41297;SDS011;27381;46.032;13.650;2022-11-02T04:41:03;37.58;;;14.05;;
41297;SDS011;27381;46.032;13.650;2022-11-02T04:43:50;34.72;;;15.30;;
41297;SDS011;27381;46.032;13.650;2022-11-02T04:46:17;40.25;;;16.13;;
41297;SDS011;27381;46.032;13.650;2022-11-02T04:48:44;45.33;;;16.85;;
41297;SDS011;27381;46.032;13.650;2022-11-02T04:51:09;28.95;;;14.70;;
41297;SDS011;27381;46.032;13.650;2022-11-02T04:53:36;41.15;;;15.85;;
41297;SDS011;27381;46.032;13.650;2022-11-02T04:56:02;36.67;;;16.25;;
41297;SDS011;27381;46.032;13.650;2022-11-02T04:58:28;44.55;;;16.58;;
41297;SDS011;27381;46.032;13.650;2022-11-02T05:00:53;33.38;;;14.38;;
41297;SDS011;27381;46.032;13.650;2022-11-02T05:03:19;34.97;;;15.52;;
41297;SDS011;27381;46.032;13.650;2022-11-02T05:05:44;37.28;;;13.82;;
41297;SDS011;27381;46.032;13.650;2022-11-02T05:08:10;36.90;;;15.80;;
41297;SDS011;27381;46.032;13.650;2022-11-02T05:10:36;37.30;;;15.20;;
41297;SDS011;27381;46.032;13.650;2022-11-02T05:13:01;36.30;;;16.05;;
41297;SDS011;27381;46.032;13.650;2022-11-02T05:15:30;30.60;;;15.48;;
41297;SDS011;27381;46.032;13.650;2022-11-02T05:17:58;44.92;;;16.58;;
41297;SDS011;27381;46.032;13.650;2022-11-02T05:20:25;37.83;;;14.80;;
41297;SDS011;27381;46.032;13.650;2022-11-02T05:22:52;35.15;;;14.38;;
41297;SDS011;27381;46.032;13.650;2022-11-02T05:25:18;48.47;;;16.15;;
41297;SDS011;27381;46.032;13.650;2022-11-02T05:27:44;36.22;;;16.02;;
41297;SDS011;27381;46.032;13.650;2022-11-02T05:30:11;42.20;;;16.10;;
41297;SDS011;27381;46.032;13.650;2022-11-02T05:32:36;37.83;;;14.65;;
41297;SDS011;27381;46.032;13.650;2022-11-02T05:35:02;40.28;;;15.63;;
41297;SDS011;27381;46.032;13.650;2022-11-02T05:37:28;32.17;;;15.60;;
41297;SDS011;27381;46.032;13.650;2022-11-02T05:39:54;38.63;;;14.13;;
41297;SDS011;27381;46.032;13.650;2022-11-02T05:42:22;44.88;;;17.05;;
41297;SDS011;27381;46.032;13.650;2022-11-02T05:44:48;39.58;;;15.43;;
41297;SDS011;27381;46.032;13.650;2022-11-02T05:47:14;42.38;;;16.23;;
41297;SDS011;27381;46.032;13.650;2022-11-02T05:49:41;42.17;;;15.00;;
41297;SDS011;27381;46.032;13.650;2022-11-02T05:52:06;55.05;;;19.30;;
41297;SDS011;27381;46.032;13.650;2022-11-02T05:54:32;40.17;;;14.95;;
41297;SDS011;27381;46.032;13.650;2022-11-02T05:56:57;53.63;;;17.67;;
41297;SDS011;27381;46.032;13.650;2022-11-02T05:59:22;33.92;;;14.60;;
41297;SDS011;27381;46.032;13.650;2022-11-02T06:01:48;40.25;;;15.80;;
41297;SDS011;27381;46.032;13.650;2022-11-02T06:04:13;43.00;;;16.40;;
41297;SDS011;27381;46.032;13.650;2022-11-02T06:06:39;37.72;;;14.25;;
41297;SDS011;27381;46.032;13.650;2022-11-02T06:09:05;39.42;;;15.98;;
41297;SDS011;27381;46.032;13.650;2022-11-02T06:11:30;37.10;;;14.38;;
41297;SDS011;27381;46.032;13.650;2022-11-02T06:13:56;33.95;;;14.85;;
41297;SDS011;27381;46.032;13.650;2022-11-02T06:16:22;33.25;;;13.57;;
41297;SDS011;27381;46.032;13.650;2022-11-02T06:18:47;35.28;;;14.25;;
41297;SDS011;27381;46.032;13.650;2022-11-02T06:21:12;40.17;;;13.20;;
41297;SDS011;27381;46.032;13.650;2022-11-02T06:23:38;31.80;;;13.93;;
41297;SDS011;27381;46.032;13.650;2022-11-02T06:26:04;36.85;;;15.43;;
41297;SDS011;27381;46.032;13.650;2022-11-02T06:28:30;34.95;;;15.30;;
41297;SDS011;27381;46.032;13.650;2022-11-02T06:30:56;35.42;;;13.90;;
41297;SDS011;27381;46.032;13.650;2022-11-02T06:33:22;35.58;;;14.43;;
41297;SDS011;27381;46.032;13.650;2022-11-02T06:35:50;34.25;;;15.07;;
41297;SDS011;27381;46.032;13.650;2022-11-02T06:38:15;35.58;;;14.27;;
41297;SDS011;27381;46.032;13.650;2022-11-02T06:40:42;26.90;;;14.27;;
41297;SDS011;27381;46.032;13.650;2022-11-02T06:43:08;40.25;;;13.90;;
41297;SDS011;27381;46.032;13.650;2022-11-02T06:45:34;32.38;;;13.85;;
41297;SDS011;27381;46.032;13.650;2022-11-02T06:48:00;34.97;;;12.38;;
41297;SDS011;27381;46.032;13.650;2022-11-02T06:50:26;31.27;;;13.73;;
41297;SDS011;27381;46.032;13.650;2022-11-02T06:52:52;30.48;;;12.95;;
41297;SDS011;27381;46.032;13.650;2022-11-02T06:55:19;34.78;;;14.43;;
41297;SDS011;27381;46.032;13.650;2022-11-02T06:57:44;43.95;;;14.88;;
41297;SDS011;27381;46.032;13.650;2022-11-02T07:00:12;37.15;;;15.07;;
41297;SDS011;27381;46.032;13.650;2022-11-02T07:02:38;44.45;;;16.25;;
41297;SDS011;27381;46.032;13.650;2022-11-02T07:05:04;42.55;;;15.55;;
41297;SDS011;27381;46.032;13.650;2022-11-02T07:07:30;45.40;;;17.15;;
41297;SDS011;27381;46.032;13.650;2022-11-02T07:09:56;43.78;;;18.33;;
41297;SDS011;27381;46.032;13.650;2022-11-02T07:12:22;40.67;;;17.15;;
41297;SDS011;27381;46.032;13.650;2022-11-02T07:14:48;49.00;;;18.60;;
41297;SDS011;27381;46.032;13.650;2022-11-02T07:17:13;35.00;;;16.30;;
41297;SDS011;27381;46.032;13.650;2022-11-02T07:19:39;45.63;;;16.40;;
41297;SDS011;27381;46.032;13.650;2022-11-02T07:22:04;33.47;;;15.45;;
41297;SDS011;27381;46.032;13.650;2022-11-02T07:24:32;44.72;;;18.33;;
41297;SDS011;27381;46.032;13.650;2022-11-02T07:26:58;39.17;;;17.00;;
41297;SDS011;27381;46.032;13.650;2022-11-02T07:29:24;39.30;;;15.40;;
41297;SDS011;27381;46.032;13.650;2022-11-02T07:31:49;43.22;;;16.73;;
41297;SDS011;27381;46.032;13.650;2022-11-02T07:34:14;46.03;;;18.35;;
41297;SDS011;27381;46.032;13.650;2022-11-02T07:36:40;43.03;;;19.00;;
41297;SDS011;27381;46.032;13.650;2022-11-02T07:39:05;34.13;;;13.85;;
41297;SDS011;27381;46.032;13.650;2022-11-02T07:41:32;37.88;;;19.65;;
41297;SDS011;27381;46.032;13.650;2022-11-02T07:43:58;44.13;;;19.15;;
41297;SDS011;27381;46.032;13.650;2022-11-02T07:46:31;47.28;;;18.85;;
41297;SDS011;27381;46.032;13.650;2022-11-02T07:48:56;37.60;;;15.23;;
41297;SDS011;27381;46.032;13.650;2022-11-02T07:51:22;49.67;;;18.27;;
41297;SDS011;27381;46.032;13.650;2022-11-02T07:53:47;42.53;;;17.65;;
41297;SDS011;27381;46.032;13.650;2022-11-02T07:56:12;36.63;;;16.85;;
41297;SDS011;27381;46.032;13.650;2022-11-02T07:58:38;40.70;;;16.08;;
41297;SDS011;27381;46.032;13.650;2022-11-02T08:01:03;31.20;;;14.32;;
41297;SDS011;27381;46.032;13.650;2022-11-02T08:03:29;42.75;;;17.27;;
41297;SDS011;27381;46.032;13.650;2022-11-02T08:05:54;45.88;;;18.17;;
41297;SDS011;27381;46.032;13.650;2022-11-02T08:08:20;36.75;;;15.02;;
41297;SDS011;27381;46.032;13.650;2022-11-02T08:10:47;43.95;;;16.42;;
41297;SDS011;27381;46.032;13.650;2022-11-02T08:13:14;43.53;;;14.50;;
41297;SDS011;27381;46.032;13.650;2022-11-02T08:15:40;35.45;;;15.90;;
41297;SDS011;27381;46.032;13.650;2022-11-02T08:18:11;42.17;;;15.48;;
41297;SDS011;27381;46.032;13.650;2022-11-02T08:20:37;38.78;;;16.20;;
41297;SDS011;27381;46.032;13.650;2022-11-02T08:23:03;35.15;;;15.13;;
41297;SDS011;27381;46.032;13.650;2022-11-02T08:25:30;35.22;;;13.95;;
41297;SDS011;27381;46.032;13.650;2022-11-02T08:27:59;30.85;;;13.50;;
41297;SDS011;27381;46.032;13.650;2022-11-02T08:30:28;32.22;;;13.75;;
41297;SDS011;27381;46.032;13.650;2022-11-02T08:32:54;37.78;;;14.52;;
41297;SDS011;27381;46.032;13.650;2022-11-02T08:35:20;36.92;;;15.02;;
41297;SDS011;27381;46.032;13.650;2022-11-02T08:37:51;34.72;;;14.23;;
41297;SDS011;27381;46.032;13.650;2022-11-02T08:40:17;28.17;;;13.23;;
41297;SDS011;27381;46.032;13.650;2022-11-02T08:42:42;40.08;;;16.77;;
41297;SDS011;27381;46.032;13.650;2022-11-02T08:45:08;35.90;;;16.85;;
41297;SDS011;27381;46.032;13.650;2022-11-02T08:47:38;30.83;;;13.63;;
41297;SDS011;27381;46.032;13.650;2022-11-02T08:50:04;33.67;;;14.15;;
41297;SDS011;27381;46.032;13.650;2022-11-02T08:52:33;38.25;;;14.23;;
41297;SDS011;27381;46.032;13.650;2022-11-02T08:54:59;34.78;;;12.82;;
41297;SDS011;27381;46.032;13.650;2022-11-02T08:57:24;35.10;;;13.45;;
41297;SDS011;27381;46.032;13.650;2022-11-02T08:59:50;40.10;;;14.60;;
41297;SDS011;27381;46.032;13.650;2022-11-02T09:02:15;30.23;;;12.60;;
41297;SDS011;27381;46.032;13.650;2022-11-02T09:04:41;36.28;;;14.30;;
41297;SDS011;27381;46.032;13.650;2022-11-02T09:07:07;37.20;;;14.65;;
41297;SDS011;27381;46.032;13.650;2022-11-02T09:09:32;42.13;;;17.40;;
41297;SDS011;27381;46.032;13.650;2022-11-02T09:11:58;42.33;;;16.33;;
41297;SDS011;27381;46.032;13.650;2022-11-02T09:14:23;34.13;;;14.13;;
41297;SDS011;27381;46.032;13.650;2022-11-02T09:16:49;29.08;;;12.70;;
41297;SDS011;27381;46.032;13.650;2022-11-02T09:19:14;31.17;;;15.55;;
41297;SDS011;27381;46.032;13.650;2022-11-02T09:21:39;31.50;;;12.85;;
41297;SDS011;27381;46.032;13.650;2022-11-02T09:24:06;26.92;;;12.65;;
41297;SDS011;27381;46.032;13.650;2022-11-02T09:26:31;31.77;;;13.57;;
41297;SDS011;27381;46.032;13.650;2022-11-02T09:28:57;35.33;;;14.10;;
41297;SDS011;27381;46.032;13.650;2022-11-02T09:31:23;33.45;;;14.13;;
41297;SDS011;27381;46.032;13.650;2022-11-02T09:33:48;32.55;;;11.55;;
41297;SDS011;27381;46.032;13.650;2022-11-02T09:36:14;27.35;;;11.18;;
41297;SDS011;27381;46.032;13.650;2022-11-02T09:38:39;28.40;;;13.15;;
41297;SDS011;27381;46.032;13.650;2022-11-02T09:41:12;27.90;;;13.40;;
41297;SDS011;27381;46.032;13.650;2022-11-02T09:46:44;30.35;;;14.68;;
41297;SDS011;27381;46.032;13.650;2022-11-02T09:49:20;41.38;;;12.70;;
41297;SDS011;27381;46.032;13.650;2022-11-02T09:51:57;48.22;;;14.38;;
41297;SDS011;27381;46.032;13.650;2022-11-02T09:54:43;38.22;;;14.38;;
41297;SDS011;27381;46.032;13.650;2022-11-02T09:57:13;41.08;;;14.73;;
41297;SDS011;27381;46.032;13.650;2022-11-02T09:59:39;37.03;;;13.98;;
41297;SDS011;27381;46.032;13.650;2022-11-02T10:02:22;33.05;;;13.80;;
41297;SDS011;27381;46.032;13.650;2022-11-02T10:07:39;30.48;;;14.43;;
41297;SDS011;27381;46.032;13.650;2022-11-02T10:12:38;27.02;;;10.75;;
41297;SDS011;27381;46.032;13.650;2022-11-02T10:15:13;31.10;;;11.27;;
41297;SDS011;27381;46.032;13.650;2022-11-02T10:17:40;28.80;;;11.82;;
41297;SDS011;27381;46.032;13.650;2022-11-02T10:20:17;27.48;;;12.43;;
41297;SDS011;27381;46.032;13.650;2022-11-02T10:22:44;31.27;;;12.52;;
41297;SDS011;27381;46.032;13.650;2022-11-02T10:25:10;33.63;;;12.95;;
41297;SDS011;27381;46.032;13.650;2022-11-02T10:27:39;23.42;;;11.18;;
41297;SDS011;27381;46.032;13.650;2022-11-02T10:30:17;32.10;;;10.68;;
41297;SDS011;27381;46.032;13.650;2022-11-02T10:32:44;26.48;;;10.65;;
41297;SDS011;27381;46.032;13.650;2022-11-02T10:35:16;23.65;;;10.68;;
41297;SDS011;27381;46.032;13.650;2022-11-02T10:47:52;25.40;;;10.27;;
41297;SDS011;27381;46.032;13.650;2022-11-02T10:53:07;24.33;;;11.10;;
41297;SDS011;27381;46.032;13.650;2022-11-02T10:55:38;23.85;;;11.57;;
41297;SDS011;27381;46.032;13.650;2022-11-02T10:58:07;23.95;;;9.82;;
41297;SDS011;27381;46.032;13.650;2022-11-02T11:00:35;34.13;;;12.23;;
41297;SDS011;27381;46.032;13.650;2022-11-02T11:03:11;24.73;;;9.68;;
41297;SDS011;27381;46.032;13.650;2022-11-02T11:06:22;29.80;;;12.55;;
41297;SDS011;27381;46.032;13.650;2022-11-02T11:08:39;21.33;;;8.85;;
41297;SDS011;27381;46.032;13.650;2022-11-02T11:11:08;21.02;;;11.43;;
41297;SDS011;27381;46.032;13.650;2022-11-02T11:13:34;26.40;;;12.35;;
41297;SDS011;27381;46.032;13.650;2022-11-02T11:15:59;25.05;;;11.65;;
41297;SDS011;27381;46.032;13.650;2022-11-02T11:18:25;26.92;;;11.68;;
41297;SDS011;27381;46.032;13.650;2022-11-02T11:20:54;25.88;;;12.27;;
41297;SDS011;27381;46.032;13.650;2022-11-02T11:23:21;22.80;;;11.00;;
41297;SDS011;27381;46.032;13.650;2022-11-02T11:25:54;29.67;;;12.52;;
41297;SDS011;27381;46.032;13.650;2022-11-02T11:28:22;33.15;;;12.68;;
41297;SDS011;27381;46.032;13.650;2022-11-02T11:30:57;27.10;;;11.55;;
41297;SDS011;27381;46.032;13.650;2022-11-02T11:33:25;23.38;;;9.90;;
41297;SDS011;27381;46.032;13.650;2022-11-02T11:35:50;27.45;;;11.35;;
41297;SDS011;27381;46.032;13.650;2022-11-02T11:38:17;22.77;;;12.13;;
41297;SDS011;27381;46.032;13.650;2022-11-02T11:40:44;24.13;;;11.50;;
41297;SDS011;27381;46.032;13.650;2022-11-02T11:43:14;29.23;;;12.73;;
41297;SDS011;27381;46.032;13.650;2022-11-02T11:45:54;30.05;;;12.90;;
41297;SDS011;27381;46.032;13.650;2022-11-02T11:50:55;23.83;;;8.98;;
41297;SDS011;27381;46.032;13.650;2022-11-02T11:53:22;24.85;;;11.73;;
41297;SDS011;27381;46.032;13.650;2022-11-02T11:55:52;22.85;;;10.95;;
41297;SDS011;27381;46.032;13.650;2022-11-02T11:58:19;19.58;;;10.27;;
41297;SDS011;27381;46.032;13.650;2022-11-02T12:01:00;23.50;;;9.88;;
41297;SDS011;27381;46.032;13.650;2022-11-02T12:03:27;18.27;;;9.48;;
41297;SDS011;27381;46.032;13.650;2022-11-02T12:05:59;24.23;;;9.85;;
41297;SDS011;27381;46.032;13.650;2022-11-02T12:08:33;25.73;;;10.93;;
41297;SDS011;27381;46.032;13.650;2022-11-02T12:16:22;18.98;;;9.20;;
41297;SDS011;27381;46.032;13.650;2022-11-02T12:18:55;19.30;;;9.27;;
41297;SDS011;27381;46.032;13.650;2022-11-02T12:28:50;22.67;;;10.75;;
41297;SDS011;27381;46.032;13.650;2022-11-02T12:49:47;27.07;;;10.30;;
41297;SDS011;27381;46.032;13.650;2022-11-02T12:52:18;24.88;;;10.98;;
41297;SDS011;27381;46.032;13.650;2022-11-02T12:54:48;20.60;;;12.02;;
41297;SDS011;27381;46.032;13.650;2022-11-02T12:57:15;23.70;;;11.32;;
41297;SDS011;27381;46.032;13.650;2022-11-02T12:59:43;33.88;;;11.73;;
41297;SDS011;27381;46.032;13.650;2022-11-02T13:02:26;29.98;;;11.82;;
41297;SDS011;27381;46.032;13.650;2022-11-02T13:10:36;30.55;;;12.05;;
41297;SDS011;27381;46.032;13.650;2022-11-02T13:13:03;25.95;;;11.18;;
41297;SDS011;27381;46.032;13.650;2022-11-02T13:15:30;30.90;;;11.70;;
41297;SDS011;27381;46.032;13.650;2022-11-02T13:17:59;29.95;;;11.90;;
41297;SDS011;27381;46.032;13.650;2022-11-02T13:20:27;28.02;;;13.15;;
41297;SDS011;27381;46.032;13.650;2022-11-02T13:22:56;33.30;;;15.18;;
41297;SDS011;27381;46.032;13.650;2022-11-02T13:25:27;24.15;;;12.45;;
41297;SDS011;27381;46.032;13.650;2022-11-02T13:27:58;22.58;;;12.15;;
41297;SDS011;27381;46.032;13.650;2022-11-02T13:30:25;28.73;;;13.30;;
41297;SDS011;27381;46.032;13.650;2022-11-02T13:32:57;31.58;;;13.52;;
41297;SDS011;27381;46.032;13.650;2022-11-02T13:40:40;27.63;;;13.82;;
41297;SDS011;27381;46.032;13.650;2022-11-02T13:48:36;29.23;;;13.68;;
41297;SDS011;27381;46.032;13.650;2022-11-02T13:51:05;27.85;;;14.00;;
41297;SDS011;27381;46.032;13.650;2022-11-02T13:53:33;38.95;;;15.73;;
41297;SDS011;27381;46.032;13.650;2022-11-02T13:56:04;33.38;;;13.15;;
41297;SDS011;27381;46.032;13.650;2022-11-02T13:58:33;28.05;;;12.82;;
41297;SDS011;27381;46.032;13.650;2022-11-02T14:01:04;31.58;;;15.75;;
41297;SDS011;27381;46.032;13.650;2022-11-02T14:05:57;31.17;;;13.70;;
41297;SDS011;27381;46.032;13.650;2022-11-02T14:08:30;29.02;;;13.80;;
41297;SDS011;27381;46.032;13.650;2022-11-02T14:20:26;29.35;;;14.32;;
41297;SDS011;27381;46.032;13.650;2022-11-02T14:34:44;26.40;;;11.85;;
41297;SDS011;27381;46.032;13.650;2022-11-02T14:42:18;25.65;;;11.73;;
41297;SDS011;27381;46.032;13.650;2022-11-02T14:47:18;33.38;;;15.40;;
41297;SDS011;27381;46.032;13.650;2022-11-02T14:49:48;39.75;;;14.60;;
41297;SDS011;27381;46.032;13.650;2022-11-02T14:52:18;42.28;;;17.33;;
41297;SDS011;27381;46.032;13.650;2022-11-02T14:54:48;40.17;;;17.65;;
41297;SDS011;27381;46.032;13.650;2022-11-02T15:00:00;29.08;;;12.90;;
41297;SDS011;27381;46.032;13.650;2022-11-02T15:04:53;38.10;;;15.13;;
41297;SDS011;27381;46.032;13.650;2022-11-02T15:07:19;32.30;;;15.20;;
41297;SDS011;27381;46.032;13.650;2022-11-02T15:12:28;32.90;;;14.35;;
41297;SDS011;27381;46.032;13.650;2022-11-02T15:14:57;33.20;;;14.38;;
41297;SDS011;27381;46.032;13.650;2022-11-02T15:19:52;35.35;;;13.55;;
41297;SDS011;27381;46.032;13.650;2022-11-02T15:22:38;28.73;;;14.35;;
41297;SDS011;27381;46.032;13.650;2022-11-02T15:25:17;33.10;;;13.95;;
41297;SDS011;27381;46.032;13.650;2022-11-02T15:27:44;35.90;;;15.95;;
41297;SDS011;27381;46.032;13.650;2022-11-02T15:30:14;27.90;;;13.50;;
41297;SDS011;27381;46.032;13.650;2022-11-02T15:32:45;33.00;;;14.05;;
41297;SDS011;27381;46.032;13.650;2022-11-02T15:35:21;28.23;;;14.43;;
41297;SDS011;27381;46.032;13.650;2022-11-02T15:37:50;27.42;;;15.35;;
41297;SDS011;27381;46.032;13.650;2022-11-02T15:40:20;32.90;;;14.27;;
41297;SDS011;27381;46.032;13.650;2022-11-02T15:57:59;25.20;;;13.00;;
41297;SDS011;27381;46.032;13.650;2022-11-02T16:00:27;30.45;;;13.05;;
41297;SDS011;27381;46.032;13.650;2022-11-02T16:03:05;30.30;;;12.10;;
41297;SDS011;27381;46.032;13.650;2022-11-02T16:05:31;27.02;;;13.40;;
41297;SDS011;27381;46.032;13.650;2022-11-02T16:07:58;25.27;;;12.20;;
41297;SDS011;27381;46.032;13.650;2022-11-02T16:10:33;21.15;;;13.45;;
41297;SDS011;27381;46.032;13.650;2022-11-02T16:12:59;26.52;;;11.48;;
41297;SDS011;27381;46.032;13.650;2022-11-02T16:15:25;24.23;;;11.38;;
41297;SDS011;27381;46.032;13.650;2022-11-02T16:17:51;23.92;;;12.40;;
41297;SDS011;27381;46.032;13.650;2022-11-02T16:22:50;21.80;;;10.98;;
41297;SDS011;27381;46.032;13.650;2022-11-02T16:25:22;18.08;;;9.93;;
41297;SDS011;27381;46.032;13.650;2022-11-02T16:27:52;22.13;;;11.40;;
41297;SDS011;27381;46.032;13.650;2022-11-02T16:30:18;28.02;;;14.15;;
41297;SDS011;27381;46.032;13.650;2022-11-02T16:32:43;27.45;;;13.55;;
41297;SDS011;27381;46.032;13.650;2022-11-02T16:35:12;27.88;;;12.32;;
41297;SDS011;27381;46.032;13.650;2022-11-02T16:37:38;26.98;;;12.77;;
41297;SDS011;27381;46.032;13.650;2022-11-02T16:40:04;28.42;;;11.75;;
41297;SDS011;27381;46.032;13.650;2022-11-02T16:42:30;24.30;;;12.43;;
41297;SDS011;27381;46.032;13.650;2022-11-02T16:44:57;25.48;;;12.50;;
41297;SDS011;27381;46.032;13.650;2022-11-02T16:50:00;25.13;;;11.82;;
41297;SDS011;27381;46.032;13.650;2022-11-02T16:52:29;21.77;;;9.75;;
41297;SDS011;27381;46.032;13.650;2022-11-02T16:54:55;19.60;;;9.60;;
41297;SDS011;27381;46.032;13.650;2022-11-02T16:57:24;28.02;;;12.57;;
41297;SDS011;27381;46.032;13.650;2022-11-02T16:59:52;25.17;;;13.73;;
41297;SDS011;27381;46.032;13.650;2022-11-02T17:02:23;44.17;;;13.75;;